createdAt,value
2023-03-31T00:00:54.573Z,3.25
2023-03-31T00:03:24.024Z,2.35
2023-03-31T00:05:59.530Z,1.98
2023-03-31T00:08:35.669Z,1.92
2023-03-31T00:11:07.227Z,2.20
2023-03-31T00:13:35.551Z,2.55
2023-03-31T00:16:06.488Z,2.10
2023-03-31T00:18:34.586Z,2.53
2023-03-31T00:21:09.256Z,1.77
2023-03-31T00:23:36.844Z,2.10
2023-03-31T00:26:04.574Z,2.35
2023-03-31T00:28:32.354Z,2.20
2023-03-31T00:31:04.311Z,3.15
2023-03-31T00:33:32.063Z,2.85
2023-03-31T00:36:06.326Z,1.80
2023-03-31T00:38:34.709Z,2.40
2023-03-31T00:41:02.876Z,2.25
2023-03-31T00:43:30.326Z,2.53
2023-03-31T00:46:19.711Z,2.78
2023-03-31T00:48:57.579Z,1.60
2023-03-31T00:51:29.340Z,1.73
2023-03-31T00:54:06.981Z,2.10
2023-03-31T00:56:38.656Z,1.02
2023-03-31T00:59:09.856Z,2.40
2023-03-31T01:01:42.940Z,2.03
2023-03-31T01:04:12.773Z,1.23
2023-03-31T01:06:50.354Z,1.90
2023-03-31T01:09:18.023Z,1.30
2023-03-31T01:11:47.724Z,1.40
2023-03-31T01:14:15.383Z,1.40
2023-03-31T01:16:42.987Z,1.60
2023-03-31T01:19:21.778Z,1.95
2023-03-31T01:21:57.073Z,2.83
2023-03-31T01:25:01.483Z,1.40
2023-03-31T01:27:44.320Z,1.20
2023-03-31T01:30:39.114Z,1.50
2023-03-31T01:33:31.111Z,1.33
2023-03-31T01:36:17.112Z,2.22
2023-03-31T01:39:22.034Z,2.70
2023-03-31T01:41:55.531Z,2.30
2023-03-31T01:44:44.680Z,1.98
2023-03-31T01:47:22.950Z,2.08
2023-03-31T01:50:02.465Z,3.92
2023-03-31T01:52:50.818Z,1.98
2023-03-31T01:55:24.475Z,2.42
2023-03-31T01:57:55.296Z,1.90
2023-03-31T02:00:33.343Z,1.67
2023-03-31T02:03:07.980Z,2.85
2023-03-31T02:05:44.964Z,2.20
2023-03-31T02:08:17.067Z,2.80
2023-03-31T02:10:46.817Z,3.72
2023-03-31T02:13:16.806Z,2.30
2023-03-31T02:15:49.270Z,2.75
2023-03-31T02:18:20.919Z,3.53
2023-03-31T02:20:51.098Z,2.58
2023-03-31T02:23:23.500Z,3.60
2023-03-31T02:26:01.150Z,2.88
2023-03-31T02:28:29.656Z,2.10
2023-03-31T02:31:24.810Z,2.60
2023-03-31T02:33:52.700Z,3.03
2023-03-31T02:36:21.535Z,3.03
2023-03-31T02:39:04.264Z,3.20
2023-03-31T02:41:31.902Z,2.40
2023-03-31T02:43:59.927Z,2.67
2023-03-31T02:46:29.850Z,2.80
2023-03-31T02:49:01.668Z,3.65
2023-03-31T02:51:49.808Z,2.20
2023-03-31T02:54:51.330Z,2.33
2023-03-31T02:57:29.109Z,3.00
2023-03-31T03:00:28.436Z,2.50
2023-03-31T03:03:14.524Z,3.55
2023-03-31T03:05:49.837Z,1.85
2023-03-31T03:08:49.104Z,2.55
2023-03-31T03:11:38.272Z,2.35
2023-03-31T03:14:14.426Z,2.47
2023-03-31T03:16:52.308Z,2.70
2023-03-31T03:19:23.802Z,2.47
2023-03-31T03:21:51.353Z,2.07
2023-03-31T03:24:19.467Z,2.30
2023-03-31T03:26:48.104Z,1.60
2023-03-31T03:29:15.675Z,3.05
2023-03-31T03:31:43.874Z,2.05
2023-03-31T03:34:11.611Z,3.67
2023-03-31T03:36:40.339Z,2.25
2023-03-31T03:39:08.944Z,2.72
2023-03-31T03:41:36.443Z,3.25
2023-03-31T03:44:04.090Z,4.18
2023-03-31T03:46:32.132Z,1.95
2023-03-31T03:48:59.634Z,2.80
2023-03-31T03:51:27.111Z,2.00
2023-03-31T03:53:54.680Z,2.00
2023-03-31T03:56:22.794Z,2.88
2023-03-31T03:58:50.842Z,2.95
2023-03-31T04:01:18.500Z,2.08
2023-03-31T04:03:46.150Z,2.08
2023-03-31T04:06:13.745Z,3.08
2023-03-31T04:08:41.280Z,1.60
2023-03-31T04:11:19.661Z,3.05
2023-03-31T04:13:48.148Z,1.98
2023-03-31T04:16:16.858Z,1.48
2023-03-31T04:18:46.076Z,2.42
2023-03-31T04:21:15.464Z,1.30
2023-03-31T04:23:46.631Z,1.33
2023-03-31T04:26:16.344Z,1.27
2023-03-31T04:28:46.748Z,1.80
2023-03-31T04:31:16.652Z,0.90
2023-03-31T04:33:46.056Z,2.38
2023-03-31T04:36:17.814Z,1.83
2023-03-31T04:38:54.959Z,2.08
2023-03-31T04:41:23.486Z,1.30
2023-03-31T04:43:51.231Z,1.77
2023-03-31T04:46:18.802Z,1.27
2023-03-31T04:48:46.407Z,2.35
2023-03-31T04:51:15.356Z,1.50
2023-03-31T04:53:42.938Z,2.30
2023-03-31T04:56:10.700Z,2.13
2023-03-31T04:58:38.236Z,2.58
2023-03-31T05:01:07.450Z,2.22
2023-03-31T05:03:36.015Z,1.27
2023-03-31T05:06:03.737Z,1.90
2023-03-31T05:08:31.811Z,1.15
2023-03-31T05:10:59.373Z,1.60
2023-03-31T05:13:26.885Z,2.67
2023-03-31T05:15:54.450Z,1.15
2023-03-31T05:18:22.047Z,2.25
2023-03-31T05:20:49.596Z,3.00
2023-03-31T05:23:17.146Z,1.15
2023-03-31T05:25:44.766Z,1.52
2023-03-31T05:28:12.253Z,1.35
2023-03-31T05:30:39.789Z,2.47
2023-03-31T05:33:07.456Z,1.23
2023-03-31T05:35:35.045Z,1.63
2023-03-31T05:38:02.615Z,2.85
2023-03-31T05:40:30.190Z,1.10
2023-03-31T05:42:57.675Z,1.67
2023-03-31T05:45:25.206Z,1.13
2023-03-31T05:47:52.779Z,1.38
2023-03-31T05:50:20.313Z,1.48
2023-03-31T05:52:47.860Z,1.30
2023-03-31T05:55:15.548Z,1.80
2023-03-31T05:57:43.061Z,1.58
2023-03-31T06:00:11.798Z,1.23
2023-03-31T06:02:39.491Z,0.90
2023-03-31T06:05:07.218Z,1.42
2023-03-31T06:07:34.703Z,0.88
2023-03-31T06:10:02.314Z,1.30
2023-03-31T06:12:29.872Z,1.30
2023-03-31T06:14:57.371Z,0.90
2023-03-31T06:17:25.024Z,0.93
2023-03-31T06:19:52.605Z,0.80
2023-03-31T06:22:20.158Z,1.35
2023-03-31T06:24:47.750Z,1.13
2023-03-31T06:27:15.696Z,0.65
2023-03-31T06:29:43.209Z,1.00
2023-03-31T06:32:11.879Z,1.98
2023-03-31T06:34:39.605Z,1.92
2023-03-31T06:37:07.095Z,1.15
2023-03-31T06:39:34.699Z,1.45
2023-03-31T06:42:02.238Z,0.77
2023-03-31T06:44:29.823Z,1.10
2023-03-31T06:46:57.381Z,0.60
2023-03-31T06:49:24.988Z,0.80
2023-03-31T06:51:52.611Z,1.92
2023-03-31T06:54:20.132Z,0.70
2023-03-31T06:56:47.748Z,0.65
2023-03-31T06:59:15.503Z,0.60
2023-03-31T07:01:43.111Z,0.57
2023-03-31T07:04:11.034Z,1.25
2023-03-31T07:06:38.558Z,1.23
2023-03-31T07:09:06.715Z,1.15
2023-03-31T07:11:34.291Z,0.88
2023-03-31T07:14:01.877Z,0.70
2023-03-31T07:16:29.459Z,0.90
2023-03-31T07:18:59.558Z,0.65
2023-03-31T07:21:27.446Z,0.60
2023-03-31T07:23:54.967Z,0.80
2023-03-31T07:26:22.541Z,0.90
2023-03-31T07:28:50.072Z,0.40
2023-03-31T07:31:17.633Z,0.70
2023-03-31T07:33:45.406Z,0.52
2023-03-31T07:36:14.155Z,0.73
2023-03-31T07:38:43.520Z,1.48
2023-03-31T07:41:13.076Z,0.90
2023-03-31T07:43:40.903Z,1.25
2023-03-31T07:46:14.663Z,0.73
2023-03-31T07:48:42.198Z,0.95
2023-03-31T07:51:09.783Z,0.73
2023-03-31T07:53:37.879Z,1.58
2023-03-31T07:56:05.657Z,1.58
2023-03-31T07:58:33.432Z,0.75
2023-03-31T08:01:01.078Z,0.90
2023-03-31T08:03:28.676Z,0.93
2023-03-31T08:05:56.736Z,1.20
2023-03-31T08:08:24.332Z,1.17
2023-03-31T08:10:51.959Z,5.80
2023-03-31T08:13:19.605Z,1.10
2023-03-31T08:15:47.238Z,1.75
2023-03-31T08:18:14.880Z,1.77
2023-03-31T08:20:42.545Z,2.55
2023-03-31T08:23:11.500Z,1.25
2023-03-31T08:25:39.568Z,1.40
2023-03-31T08:28:10.740Z,1.98
2023-03-31T08:30:39.599Z,2.05
2023-03-31T08:33:08.123Z,1.85
2023-03-31T08:35:39.672Z,2.35
2023-03-31T08:38:07.363Z,3.22
2023-03-31T08:40:35.097Z,1.73
2023-03-31T08:45:36.244Z,2.47
2023-03-31T08:48:25.562Z,3.35
2023-03-31T08:51:02.379Z,4.03
2023-03-31T08:53:33.344Z,2.95
2023-03-31T08:56:01.527Z,3.05
2023-03-31T08:58:44.574Z,3.17
2023-03-31T09:01:52.169Z,4.13
2023-03-31T09:04:32.092Z,3.53
2023-03-31T09:07:21.413Z,3.72
2023-03-31T09:10:13.704Z,3.42
2023-03-31T09:13:05.436Z,2.72
2023-03-31T09:15:54.219Z,3.33
2023-03-31T09:18:35.874Z,2.75
2023-03-31T09:21:16.837Z,3.03
2023-03-31T09:24:00.299Z,2.22
2023-03-31T09:26:42.811Z,2.83
2023-03-31T09:32:19.327Z,2.38
2023-03-31T09:34:51.424Z,3.95
2023-03-31T09:37:19.005Z,2.53
2023-03-31T09:39:46.918Z,2.70
2023-03-31T09:42:15.464Z,1.88
2023-03-31T09:44:49.921Z,1.80
2023-03-31T09:47:43.206Z,2.22
2023-03-31T09:50:12.603Z,4.28
2023-03-31T09:53:01.948Z,1.80
2023-03-31T09:55:46.424Z,2.30
2023-03-31T09:58:16.835Z,4.10
2023-03-31T10:00:58.542Z,2.28
2023-03-31T10:03:27.896Z,1.98
2023-03-31T10:05:58.971Z,1.23
2023-03-31T10:08:35.379Z,1.55
2023-03-31T10:11:02.949Z,1.85
2023-03-31T10:13:41.142Z,2.25
2023-03-31T10:16:14.535Z,1.67
2023-03-31T10:18:44.455Z,2.45
2023-03-31T10:21:27.727Z,2.67
2023-03-31T10:23:56.312Z,3.60
2023-03-31T10:26:28.356Z,3.33
2023-03-31T10:28:56.365Z,1.67
2023-03-31T10:31:28.737Z,2.30
2023-03-31T10:33:58.383Z,2.03
2023-03-31T10:36:31.791Z,1.38
2023-03-31T10:38:59.793Z,1.55
2023-03-31T10:41:30.221Z,2.33
2023-03-31T10:44:00.208Z,2.08
2023-03-31T10:46:51.273Z,1.23
2023-03-31T10:49:28.880Z,2.85
2023-03-31T10:51:58.796Z,2.25
2023-03-31T10:54:27.276Z,1.52
2023-03-31T10:57:05.493Z,1.30
2023-03-31T11:00:13.351Z,1.90
2023-03-31T11:03:09.712Z,1.38
2023-03-31T11:05:45.143Z,2.50
2023-03-31T11:08:27.167Z,2.38
2023-03-31T11:11:29.460Z,2.80
2023-03-31T11:14:30.882Z,2.13
2023-03-31T11:17:05.081Z,2.30
2023-03-31T11:19:45.944Z,2.13
2023-03-31T11:22:38.314Z,1.50
2023-03-31T11:25:18.752Z,2.00
2023-03-31T11:28:17.391Z,1.70
2023-03-31T11:31:28.599Z,1.88
2023-03-31T11:34:09.418Z,1.52
2023-03-31T11:36:52.235Z,2.78
2023-03-31T11:39:26.201Z,2.92
2023-03-31T11:41:59.668Z,2.42
2023-03-31T11:44:31.229Z,1.73
2023-03-31T11:47:07.471Z,2.75
2023-03-31T11:49:46.011Z,1.98
2023-03-31T11:52:17.747Z,1.60
2023-03-31T11:54:51.579Z,1.77
2023-03-31T11:57:34.595Z,3.05
2023-03-31T12:00:13.383Z,1.20
2023-03-31T12:02:56.284Z,1.55
2023-03-31T12:05:27.364Z,1.25
2023-03-31T12:07:57.671Z,0.90
2023-03-31T12:10:36.654Z,0.90
2023-03-31T12:13:27.296Z,0.65
2023-03-31T12:16:16.033Z,0.73
2023-03-31T12:18:54.425Z,1.30
2023-03-31T12:21:24.689Z,1.00
2023-03-31T12:23:52.271Z,0.90
2023-03-31T12:26:42.415Z,1.17
2023-03-31T12:29:28.227Z,1.38
2023-03-31T12:31:59.540Z,0.93
2023-03-31T12:34:30.195Z,0.90
2023-03-31T12:37:20.172Z,1.13
2023-03-31T12:40:17.375Z,1.27
2023-03-31T12:43:06.649Z,1.38
2023-03-31T12:45:48.250Z,0.93
2023-03-31T12:48:55.306Z,1.48
2023-03-31T12:51:49.183Z,1.23
2023-03-31T12:54:45.146Z,0.90
2023-03-31T12:57:12.682Z,1.52
2023-03-31T12:59:45.665Z,1.35
2023-03-31T13:02:16.256Z,1.60
2023-03-31T13:04:44.971Z,0.95
2023-03-31T13:07:37.043Z,2.13
2023-03-31T13:10:31.988Z,1.15
2023-03-31T13:13:04.022Z,1.40
2023-03-31T13:15:32.483Z,2.08
2023-03-31T13:18:05.989Z,1.83
2023-03-31T13:20:38.166Z,2.13
2023-03-31T13:23:08.523Z,3.95
2023-03-31T13:25:42.768Z,2.25
2023-03-31T13:28:25.591Z,1.60
2023-03-31T13:31:03.809Z,1.50
2023-03-31T13:33:39.533Z,1.88
2023-03-31T13:36:16.516Z,0.90
2023-03-31T13:38:59.183Z,1.00
2023-03-31T13:41:40.475Z,0.90
2023-03-31T13:44:59.216Z,1.20
2023-03-31T13:48:21.087Z,1.77
2023-03-31T13:50:52.016Z,1.33
2023-03-31T13:53:48.303Z,0.80
2023-03-31T13:56:35.843Z,1.48
2023-03-31T13:59:09.180Z,0.82
2023-03-31T14:01:37.148Z,1.02
2023-03-31T14:04:23.018Z,1.05
2023-03-31T14:06:58.684Z,0.75
2023-03-31T14:09:37.453Z,1.20
2023-03-31T14:12:31.196Z,0.88
2023-03-31T14:14:58.809Z,1.08
2023-03-31T14:17:37.401Z,1.25
2023-03-31T14:20:38.164Z,1.33
2023-03-31T14:23:20.834Z,0.70
2023-03-31T14:26:17.889Z,1.20
2023-03-31T14:29:13.764Z,1.35
2023-03-31T14:31:49.195Z,1.23
2023-03-31T14:35:05.186Z,0.70
2023-03-31T14:37:33.111Z,0.90
2023-03-31T14:40:03.890Z,1.10
2023-03-31T14:42:39.574Z,0.90
2023-03-31T14:45:17.181Z,0.80
2023-03-31T14:48:14.538Z,0.60
2023-03-31T14:50:47.858Z,0.50
2023-03-31T14:53:24.153Z,0.50
2023-03-31T14:55:59.056Z,0.70
2023-03-31T14:58:41.129Z,0.88
2023-03-31T15:01:11.608Z,0.47
2023-03-31T15:03:42.596Z,0.90
2023-03-31T15:06:11.530Z,0.70
2023-03-31T15:08:39.597Z,0.80
2023-03-31T15:11:13.718Z,0.52
2023-03-31T15:14:00.881Z,0.90
2023-03-31T15:16:43.085Z,0.68
2023-03-31T15:19:22.985Z,1.02
2023-03-31T15:22:02.900Z,0.70
2023-03-31T15:24:31.017Z,0.75
2023-03-31T15:27:04.981Z,0.93
2023-03-31T15:29:43.487Z,1.17
2023-03-31T15:32:28.960Z,0.90
2023-03-31T15:35:04.781Z,0.75
2023-03-31T15:37:42.092Z,0.80
2023-03-31T15:40:31.070Z,2.65
2023-03-31T15:43:44.124Z,1.23
2023-03-31T15:46:18.108Z,0.82
2023-03-31T15:48:56.654Z,1.10
2023-03-31T15:51:34.502Z,1.33
2023-03-31T15:54:02.496Z,0.90
2023-03-31T15:56:41.646Z,0.68
2023-03-31T15:59:38.000Z,0.90
2023-03-31T16:02:14.868Z,0.93
2023-03-31T16:04:42.656Z,0.82
2023-03-31T16:07:18.722Z,1.05
2023-03-31T16:09:56.237Z,1.00
2023-03-31T16:12:25.593Z,0.90
2023-03-31T16:15:31.500Z,0.40
2023-03-31T16:18:06.547Z,0.73
2023-03-31T16:20:38.598Z,1.10
2023-03-31T16:23:26.249Z,0.88
2023-03-31T16:25:54.304Z,0.70
2023-03-31T16:28:25.690Z,1.00
2023-03-31T16:30:54.586Z,0.80
2023-03-31T16:33:24.579Z,0.90
2023-03-31T16:35:56.172Z,0.80
2023-03-31T16:38:26.561Z,1.02
2023-03-31T16:40:56.192Z,0.70
2023-03-31T16:43:29.319Z,1.27
2023-03-31T16:46:01.836Z,2.10
2023-03-31T16:48:30.837Z,0.88
2023-03-31T16:51:00.388Z,1.42
2023-03-31T16:53:31.030Z,1.00
2023-03-31T16:55:59.327Z,1.10
2023-03-31T16:58:28.470Z,0.90
2023-03-31T17:00:57.353Z,0.95
2023-03-31T17:03:25.670Z,0.98
2023-03-31T17:05:58.620Z,2.05
2023-03-31T17:08:28.734Z,1.02
2023-03-31T17:11:01.311Z,1.00
2023-03-31T17:13:28.860Z,1.23
2023-03-31T17:18:44.458Z,1.40
2023-03-31T17:21:15.100Z,2.00
2023-03-31T17:23:43.132Z,1.20
2023-03-31T17:26:12.774Z,1.23
2023-03-31T17:28:41.584Z,1.60
2023-03-31T17:31:21.077Z,1.42
2023-03-31T17:33:48.932Z,2.35
2023-03-31T17:36:16.689Z,1.10
2023-03-31T17:38:44.946Z,1.00
2023-03-31T17:41:15.338Z,1.20
2023-03-31T17:43:47.151Z,1.55
2023-03-31T17:46:15.462Z,1.08
2023-03-31T17:48:43.656Z,1.20
2023-03-31T17:51:19.809Z,1.23
2023-03-31T17:53:49.005Z,1.30
2023-03-31T17:56:17.815Z,1.08
2023-03-31T17:58:46.249Z,1.42
2023-03-31T18:01:14.647Z,1.27
2023-03-31T18:03:42.631Z,1.52
2023-03-31T18:06:12.913Z,1.35
2023-03-31T18:08:42.616Z,1.42
2023-03-31T18:11:11.318Z,1.63
2023-03-31T18:13:39.376Z,2.15
2023-03-31T18:16:09.870Z,1.25
2023-03-31T18:18:39.475Z,1.80
2023-03-31T18:21:08.528Z,1.45
2023-03-31T18:23:36.459Z,2.15
2023-03-31T18:26:07.583Z,1.85
2023-03-31T18:28:36.042Z,1.65
2023-03-31T18:31:07.649Z,2.63
2023-03-31T18:33:36.495Z,1.73
2023-03-31T18:36:04.557Z,1.92
2023-03-31T18:38:33.418Z,2.05
2023-03-31T18:41:01.748Z,2.92
2023-03-31T18:43:30.804Z,2.15
2023-03-31T18:46:01.309Z,2.95
2023-03-31T18:48:29.218Z,2.28
2023-03-31T18:50:57.463Z,1.98
2023-03-31T18:53:25.950Z,2.17
2023-03-31T18:55:56.452Z,1.90
2023-03-31T18:58:25.080Z,2.13
2023-03-31T19:00:52.855Z,2.10
2023-03-31T19:03:20.572Z,2.40
2023-03-31T19:05:48.374Z,2.53
2023-03-31T19:08:16.226Z,3.30
2023-03-31T19:10:44.038Z,3.50
2023-03-31T19:13:16.878Z,4.43
2023-03-31T19:15:44.518Z,3.17
2023-03-31T19:18:15.813Z,3.75
2023-03-31T19:20:43.359Z,4.63
2023-03-31T19:23:12.808Z,3.90
2023-03-31T19:25:40.962Z,4.00
2023-03-31T19:28:08.622Z,5.53
2023-03-31T19:30:36.195Z,5.10
2023-03-31T19:33:03.789Z,4.43
2023-03-31T19:35:31.903Z,3.92
2023-03-31T19:37:59.575Z,4.20
2023-03-31T19:40:27.979Z,3.25
2023-03-31T19:42:55.589Z,3.72
2023-03-31T19:45:23.147Z,3.95
2023-03-31T19:47:50.781Z,3.38
2023-03-31T19:50:18.476Z,4.20
2023-03-31T19:52:49.741Z,4.72
2023-03-31T19:55:17.939Z,5.53
2023-03-31T19:57:45.616Z,3.47
2023-03-31T20:00:13.610Z,3.72
2023-03-31T20:02:41.446Z,4.57
2023-03-31T20:05:09.262Z,5.00
2023-03-31T20:07:36.888Z,3.90
2023-03-31T20:10:04.512Z,4.55
2023-03-31T20:12:32.064Z,4.13
2023-03-31T20:14:59.839Z,5.97
2023-03-31T20:17:27.419Z,3.88
2023-03-31T20:19:55.369Z,4.07
2023-03-31T20:22:23.086Z,5.50
2023-03-31T20:24:50.741Z,4.55
2023-03-31T20:27:18.466Z,4.50
2023-03-31T20:29:46.506Z,6.38
2023-03-31T20:32:17.198Z,4.97
2023-03-31T20:34:44.980Z,6.03
2023-03-31T20:37:13.077Z,4.97
2023-03-31T20:39:42.453Z,6.78
2023-03-31T20:42:10.790Z,4.68
2023-03-31T20:44:38.246Z,5.30
2023-03-31T20:47:05.794Z,4.10
2023-03-31T20:49:33.524Z,3.50
2023-03-31T20:52:01.319Z,3.88
2023-03-31T20:54:29.017Z,2.83
2023-03-31T20:56:56.596Z,3.83
2023-03-31T20:59:24.235Z,2.42
2023-03-31T21:01:51.781Z,2.30
2023-03-31T21:04:19.514Z,2.03
2023-03-31T21:06:48.401Z,3.72
2023-03-31T21:09:17.064Z,1.80
2023-03-31T21:11:45.016Z,1.83
2023-03-31T21:14:15.670Z,2.30
2023-03-31T21:16:43.558Z,2.08
2023-03-31T21:19:11.458Z,2.05
2023-03-31T21:21:41.228Z,2.10
2023-03-31T21:24:11.495Z,1.60
2023-03-31T21:26:39.792Z,2.90
2023-03-31T21:29:07.437Z,1.98
2023-03-31T21:31:35.046Z,1.88
2023-03-31T21:34:03.411Z,2.13
2023-03-31T21:36:31.245Z,1.88
2023-03-31T21:38:59.055Z,2.45
2023-03-31T21:41:30.006Z,1.83
2023-03-31T21:44:00.582Z,1.50
2023-03-31T21:46:33.039Z,2.78
2023-03-31T21:49:01.100Z,2.42
2023-03-31T21:51:28.893Z,1.33
2023-03-31T21:53:56.978Z,2.53
2023-03-31T21:56:27.696Z,1.55
2023-03-31T21:58:55.695Z,2.50
2023-03-31T22:01:23.599Z,1.60
2023-03-31T22:03:51.855Z,1.35
2023-03-31T22:06:19.983Z,1.83
2023-03-31T22:08:47.602Z,2.20
2023-03-31T22:11:16.105Z,2.20
2023-03-31T22:13:44.045Z,2.92
2023-03-31T22:16:29.472Z,3.25
2023-03-31T22:18:57.114Z,3.15
2023-03-31T22:21:26.757Z,2.42
2023-03-31T22:23:56.309Z,2.90
2023-03-31T22:26:24.709Z,2.78
2023-03-31T22:28:52.817Z,3.72
2023-03-31T22:31:20.616Z,2.97
2023-03-31T22:33:48.897Z,3.13
2023-03-31T22:36:17.012Z,4.78
2023-03-31T22:38:44.653Z,3.88
2023-03-31T22:41:12.236Z,3.28
2023-03-31T22:43:39.906Z,5.15
2023-03-31T22:46:09.832Z,6.45
2023-03-31T22:48:37.507Z,4.22
2023-03-31T22:51:06.178Z,5.07
2023-03-31T22:53:34.606Z,5.78
2023-03-31T22:56:08.228Z,5.18
2023-03-31T22:58:36.108Z,4.72
2023-03-31T23:01:04.812Z,6.43
2023-03-31T23:03:32.428Z,5.82
2023-03-31T23:06:05.044Z,6.63
2023-03-31T23:08:33.395Z,7.10
2023-03-31T23:11:01.767Z,7.25
2023-03-31T23:13:30.333Z,7.82
2023-03-31T23:16:03.502Z,8.32
2023-03-31T23:18:31.447Z,9.23
2023-03-31T23:20:58.932Z,9.00
2023-03-31T23:23:26.439Z,10.20
2023-03-31T23:25:53.975Z,8.48
2023-03-31T23:28:21.767Z,8.38
2023-03-31T23:30:56.440Z,9.75
2023-03-31T23:33:25.483Z,9.00
2023-03-31T23:35:54.294Z,11.45
2023-03-31T23:38:22.311Z,8.68
2023-03-31T23:40:49.877Z,11.57
2023-03-31T23:43:18.197Z,13.40
2023-03-31T23:45:45.720Z,11.15
2023-03-31T23:48:13.276Z,11.77
2023-03-31T23:50:40.919Z,12.65
2023-03-31T23:53:08.476Z,13.40
2023-03-31T23:55:36.506Z,15.43
2023-03-31T23:58:04.550Z,12.15
